Time;durP1;ratioP1;P1;durP2;ratioP2;P2;SDS_P1;SDS_P2;PMS_P1;PMS_P2;Temp;Humidity;BMP_temperature;BMP_pressure;BME280_temperature;BME280_humidity;BME280_pressure;Samples;Min_cycle;Max_cycle;Signal;HPM_P1;HPM_P2
2023/03/18 00:00:18;;;;;;;21.30;17.50;;;10.10;99.90;;;;;;4994647;28;20215;-79
2023/03/18 00:02:46;;;;;;;31.73;18.90;;;10.10;99.90;;;;;;4993963;28;20228;-78
2023/03/18 00:05:15;;;;;;;21.70;16.53;;;10.10;99.90;;;;;;4994494;28;20226;-79
2023/03/18 00:07:42;;;;;;;20.70;16.87;;;10.00;99.90;;;;;;4994893;28;20803;-78
2023/03/18 00:10:11;;;;;;;21.30;16.03;;;10.00;99.90;;;;;;4994190;28;20200;-79
2023/03/18 00:12:39;;;;;;;20.67;15.90;;;9.90;99.90;;;;;;4994495;28;20262;-79
2023/03/18 00:15:07;;;;;;;19.17;15.23;;;9.90;99.90;;;;;;5006456;28;20227;-78
2023/03/18 00:17:34;;;;;;;26.07;18.37;;;9.80;99.90;;;;;;5013855;28;20841;-80
2023/03/18 00:20:04;;;;;;;23.60;17.77;;;9.80;99.90;;;;;;5014182;28;20196;-79
2023/03/18 00:22:34;;;;;;;25.40;18.20;;;9.80;99.90;;;;;;5013315;28;20188;-79
2023/03/18 00:25:02;;;;;;;27.13;17.43;;;9.80;99.90;;;;;;5013777;28;20654;-78
2023/03/18 00:27:29;;;;;;;19.77;14.67;;;9.80;99.90;;;;;;5013398;28;20239;-79
2023/03/18 00:29:57;;;;;;;21.37;16.80;;;9.70;99.90;;;;;;5012955;28;20208;-78
2023/03/18 00:32:26;;;;;;;22.50;17.37;;;9.70;99.90;;;;;;5014024;28;20192;-78
2023/03/18 00:34:53;;;;;;;29.20;20.60;;;9.70;99.90;;;;;;5013605;28;20286;-79
2023/03/18 00:37:29;;;;;;;29.17;21.80;;;9.70;99.90;;;;;;5012771;28;20290;-78
2023/03/18 00:40:03;;;;;;;30.60;20.77;;;9.70;99.90;;;;;;5013788;28;20195;-79
2023/03/18 00:42:36;;;;;;;26.33;19.87;;;9.70;99.90;;;;;;5021773;28;20217;-79
2023/03/18 00:45:03;;;;;;;25.13;19.27;;;9.70;99.90;;;;;;5032500;28;20229;-79
2023/03/18 00:47:30;;;;;;;22.50;18.47;;;9.70;99.90;;;;;;5019503;28;20210;-79
2023/03/18 00:49:57;;;;;;;23.97;17.27;;;9.60;99.90;;;;;;5013360;28;20227;-78
2023/03/18 00:52:24;;;;;;;30.17;21.10;;;9.60;99.90;;;;;;5013099;28;20593;-79
2023/03/18 00:54:51;;;;;;;27.47;20.07;;;9.60;99.90;;;;;;5012877;28;20231;-79
2023/03/18 00:57:19;;;;;;;27.70;20.63;;;9.50;99.90;;;;;;5012354;28;20621;-79
2023/03/18 00:59:47;;;;;;;25.13;19.90;;;9.50;99.90;;;;;;5013008;28;20207;-79
2023/03/18 01:02:14;;;;;;;25.00;20.13;;;9.50;99.90;;;;;;5013145;28;20295;-78
2023/03/18 01:04:41;;;;;;;26.90;20.13;;;9.40;99.90;;;;;;5011931;28;20245;-78
2023/03/18 01:07:09;;;;;;;25.93;19.23;;;9.40;99.90;;;;;;5013155;28;20199;-79
2023/03/18 01:09:38;;;;;;;26.07;19.23;;;9.40;99.90;;;;;;5013243;28;20199;-79
2023/03/18 01:12:06;;;;;;;28.73;21.60;;;9.30;99.90;;;;;;5012272;28;20518;-79
2023/03/18 01:14:35;;;;;;;30.57;22.00;;;9.30;99.90;;;;;;5011873;28;20231;-79
2023/03/18 01:17:02;;;;;;;32.37;22.90;;;9.30;99.90;;;;;;5012791;28;20195;-79
2023/03/18 01:19:29;;;;;;;28.80;21.80;;;9.30;99.90;;;;;;5012641;28;20295;-79
2023/03/18 01:21:56;;;;;;;30.60;20.90;;;9.20;99.90;;;;;;5013247;28;20590;-78
2023/03/18 01:24:23;;;;;;;31.00;20.93;;;9.20;99.90;;;;;;5012795;28;20196;-79
2023/03/18 01:26:50;;;;;;;28.93;21.77;;;9.20;99.90;;;;;;5011872;28;20231;-78
2023/03/18 01:29:17;;;;;;;31.10;22.07;;;9.10;99.90;;;;;;5012492;28;20235;-79
2023/03/18 01:31:46;;;;;;;30.63;22.07;;;9.10;99.90;;;;;;5012758;28;20557;-78
2023/03/18 01:34:15;;;;;;;29.57;22.03;;;9.10;99.90;;;;;;5011967;28;20279;-78
2023/03/18 01:36:42;;;;;;;29.97;21.93;;;9.10;99.90;;;;;;5012242;28;20282;-79
2023/03/18 01:39:10;;;;;;;36.03;24.70;;;9.00;99.90;;;;;;5012277;28;20586;-77
2023/03/18 01:41:37;;;;;;;35.50;23.30;;;9.00;99.90;;;;;;5012389;28;20216;-78
2023/03/18 01:44:04;;;;;;;36.67;24.80;;;9.00;99.90;;;;;;5012795;28;20203;-78
2023/03/18 01:46:37;;;;;;;36.10;25.00;;;9.00;99.90;;;;;;5012118;28;20254;-78
2023/03/18 01:49:11;;;;;;;31.67;23.23;;;9.00;99.90;;;;;;5012711;28;20290;-79
2023/03/18 01:51:39;;;;;;;32.83;24.47;;;9.00;99.90;;;;;;5013128;28;20207;-79
2023/03/18 01:54:07;;;;;;;36.00;24.90;;;9.00;99.90;;;;;;5011332;28;20207;-79
2023/03/18 01:56:37;;;;;;;32.93;24.20;;;8.90;99.90;;;;;;5011650;28;20500;-79
2023/03/18 01:59:06;;;;;;;34.93;24.57;;;8.90;99.90;;;;;;5011994;28;20282;-78
2023/03/18 02:01:39;;;;;;;31.67;23.40;;;8.90;99.90;;;;;;5011606;28;20207;-79
2023/03/18 02:04:09;;;;;;;27.80;22.00;;;8.90;99.90;;;;;;5012046;28;20222;-79
2023/03/18 02:06:37;;;;;;;27.37;20.53;;;8.90;99.90;;;;;;5011820;28;20223;-78
2023/03/18 02:09:04;;;;;;;26.73;20.70;;;8.80;99.90;;;;;;5011569;28;20213;-79
2023/03/18 02:11:34;;;;;;;28.00;22.17;;;8.80;99.90;;;;;;5012092;28;20618;-78
2023/03/18 02:14:02;;;;;;;28.17;21.40;;;8.80;99.90;;;;;;5011780;28;20233;-78
2023/03/18 02:16:34;;;;;;;27.93;20.93;;;8.70;99.90;;;;;;5011231;28;20215;-78
2023/03/18 02:19:08;;;;;;;34.27;25.93;;;8.70;99.90;;;;;;5012080;28;20199;-78
2023/03/18 02:21:43;;;;;;;34.43;26.00;;;8.80;99.90;;;;;;5011421;28;20269;-78
2023/03/18 02:24:20;;;;;;;40.97;27.93;;;8.80;99.90;;;;;;5011773;28;20187;-78
2023/03/18 02:26:53;;;;;;;37.77;24.83;;;8.80;99.90;;;;;;5011995;28;20223;-78
2023/03/18 02:29:22;;;;;;;34.53;25.33;;;8.90;99.90;;;;;;5011269;28;20758;-78
2023/03/18 02:31:50;;;;;;;35.03;26.03;;;8.90;99.90;;;;;;5011541;28;20290;-79
2023/03/18 02:34:17;;;;;;;36.97;25.90;;;8.90;99.90;;;;;;5011630;28;20215;-78
2023/03/18 02:36:44;;;;;;;34.63;24.30;;;9.00;99.90;;;;;;5010575;28;20541;-79
2023/03/18 02:39:15;;;;;;;40.20;27.07;;;8.90;99.90;;;;;;5012139;28;20568;-78
2023/03/18 02:41:42;;;;;;;35.33;25.03;;;8.90;99.90;;;;;;5011660;28;20199;-79
2023/03/18 02:44:10;;;;;;;36.33;26.50;;;9.00;99.90;;;;;;5011377;28;20448;-78
2023/03/18 02:46:47;;;;;;;32.07;23.53;;;9.00;99.90;;;;;;5011656;28;20247;-79
2023/03/18 02:49:15;;;;;;;43.93;26.30;;;9.00;99.90;;;;;;5011649;28;20237;-78
2023/03/18 02:51:43;;;;;;;36.50;24.80;;;9.00;99.90;;;;;;5010843;28;20225;-79
2023/03/18 02:54:12;;;;;;;33.53;24.03;;;9.00;99.90;;;;;;5030843;28;20281;-78
2023/03/18 02:56:41;;;;;;;28.70;22.40;;;9.00;99.90;;;;;;5030641;28;20206;-78
2023/03/18 02:59:09;;;;;;;33.73;24.03;;;8.90;99.90;;;;;;5015786;28;20230;-79
2023/03/18 03:01:37;;;;;;;33.33;24.83;;;8.90;99.90;;;;;;5013513;28;20400;-78
2023/03/18 03:04:06;;;;;;;35.53;25.60;;;8.90;99.90;;;;;;5014603;28;20285;-78
2023/03/18 03:06:34;;;;;;;36.17;25.90;;;8.90;99.90;;;;;;5015467;28;20254;-78
2023/03/18 03:09:02;;;;;;;35.37;25.30;;;8.90;99.90;;;;;;5015313;28;20211;-79
2023/03/18 03:11:29;;;;;;;34.40;26.17;;;8.90;99.90;;;;;;5014872;28;20203;-78
2023/03/18 03:13:56;;;;;;;32.97;25.10;;;8.90;99.90;;;;;;5015010;28;20713;-79
2023/03/18 03:16:23;;;;;;;32.50;23.77;;;8.90;99.90;;;;;;5015270;28;20285;-78
2023/03/18 03:18:50;;;;;;;36.13;26.00;;;8.90;99.90;;;;;;5014587;28;20524;-79
2023/03/18 03:21:19;;;;;;;39.03;27.97;;;8.90;99.90;;;;;;5014912;28;20290;-79
2023/03/18 03:23:46;;;;;;;42.00;28.33;;;8.90;99.90;;;;;;5015171;28;20584;-78
2023/03/18 03:26:14;;;;;;;40.90;27.13;;;8.90;99.90;;;;;;5014288;28;20245;-79
2023/03/18 03:28:41;;;;;;;40.13;28.10;;;9.00;99.90;;;;;;5015169;28;20203;-78
2023/03/18 03:31:09;;;;;;;35.20;25.87;;;9.00;99.90;;;;;;5028222;28;20199;-78
2023/03/18 03:33:40;;;;;;;33.63;25.67;;;9.00;99.90;;;;;;5034017;28;20695;-79
2023/03/18 03:36:08;;;;;;;38.67;27.80;;;9.00;99.90;;;;;;5034495;28;20199;-78
2023/03/18 03:38:36;;;;;;;39.80;26.87;;;9.00;99.90;;;;;;5028728;28;20210;-79
2023/03/18 03:41:04;;;;;;;31.57;24.50;;;9.00;99.90;;;;;;5014047;28;20203;-78
2023/03/18 03:43:31;;;;;;;30.20;23.23;;;9.00;99.90;;;;;;5014896;28;20207;-79
2023/03/18 03:45:58;;;;;;;26.77;22.17;;;9.00;99.90;;;;;;5013508;28;20227;-79
2023/03/18 03:48:25;;;;;;;35.23;26.47;;;9.00;99.90;;;;;;5014615;28;20793;-79
2023/03/18 03:50:52;;;;;;;32.27;25.40;;;9.00;99.90;;;;;;5014271;28;20282;-78
2023/03/18 03:53:20;;;;;;;37.50;27.97;;;9.00;99.90;;;;;;5014232;28;20222;-79
2023/03/18 03:55:48;;;;;;;32.87;26.13;;;9.10;99.90;;;;;;5014215;28;20219;-79
2023/03/18 03:58:15;;;;;;;33.83;26.77;;;9.10;99.90;;;;;;5014677;28;20207;-78
2023/03/18 04:00:42;;;;;;;33.50;25.93;;;9.10;99.90;;;;;;5013809;28;20211;-78
2023/03/18 04:03:09;;;;;;;30.00;24.27;;;9.10;99.90;;;;;;5014557;28;20207;-79
2023/03/18 04:05:37;;;;;;;32.10;25.27;;;9.10;99.90;;;;;;5014270;28;20214;-77
2023/03/18 04:08:05;;;;;;;31.67;25.03;;;9.10;99.90;;;;;;5013799;28;20541;-78
2023/03/18 04:10:33;;;;;;;32.57;24.43;;;9.10;99.90;;;;;;5013968;28;20215;-78
2023/03/18 04:13:02;;;;;;;34.23;25.60;;;9.10;99.90;;;;;;5013147;28;20241;-79
2023/03/18 04:15:28;;;;;;;32.43;25.93;;;9.10;99.90;;;;;;5013315;28;20235;-81
2023/03/18 04:17:55;;;;;;;36.53;27.63;;;9.10;99.90;;;;;;5014230;28;20274;-79
2023/03/18 04:20:22;;;;;;;37.67;29.47;;;9.10;99.90;;;;;;5014075;28;20214;-79
2023/03/18 04:22:49;;;;;;;37.33;27.20;;;9.20;99.90;;;;;;5013218;28;20199;-79
2023/03/18 04:25:16;;;;;;;36.50;27.47;;;9.20;99.90;;;;;;5013492;28;20204;-79
2023/03/18 04:27:43;;;;;;;35.73;26.40;;;9.20;99.90;;;;;;5013937;28;20277;-79
2023/03/18 04:30:13;;;;;;;34.67;28.20;;;9.20;99.90;;;;;;5013380;28;20235;-79
2023/03/18 04:32:40;;;;;;;34.30;27.73;;;9.20;99.90;;;;;;5013672;28;20199;-79
2023/03/18 04:35:08;;;;;;;29.70;24.27;;;9.20;99.90;;;;;;5013525;28;20203;-78
2023/03/18 04:37:36;;;;;;;29.73;24.87;;;9.20;99.90;;;;;;5013576;28;20206;-79
2023/03/18 04:40:05;;;;;;;31.10;23.40;;;9.20;99.90;;;;;;5013770;28;20223;-77
2023/03/18 04:42:32;;;;;;;29.80;24.33;;;9.20;99.90;;;;;;5013031;28;20215;-79
2023/03/18 04:44:58;;;;;;;29.17;23.83;;;9.20;99.90;;;;;;5013361;28;20206;-79
2023/03/18 04:47:28;;;;;;;33.97;25.83;;;9.20;99.90;;;;;;5013553;28;20302;-79
2023/03/18 04:49:54;;;;;;;36.03;27.73;;;9.20;99.90;;;;;;5013138;28;20208;-79
2023/03/18 04:52:21;;;;;;;35.93;27.07;;;9.30;99.90;;;;;;5013300;28;20286;-79
2023/03/18 04:54:48;;;;;;;30.50;26.03;;;9.30;99.90;;;;;;5013528;28;20235;-80
2023/03/18 04:57:17;;;;;;;37.50;28.03;;;9.40;99.90;;;;;;5012709;28;20592;-79
2023/03/18 04:59:44;;;;;;;38.77;28.03;;;9.40;99.90;;;;;;5013409;28;20283;-79
2023/03/18 05:02:11;;;;;;;35.10;27.47;;;9.50;99.90;;;;;;5013341;28;20294;-80
2023/03/18 05:04:39;;;;;;;38.47;28.77;;;9.50;99.90;;;;;;5012780;28;20195;-80
2023/03/18 05:07:07;;;;;;;31.77;26.33;;;9.50;99.90;;;;;;5013122;28;20224;-79
2023/03/18 05:09:34;;;;;;;40.67;29.47;;;9.60;99.90;;;;;;5013040;28;20261;-79
2023/03/18 05:12:01;;;;;;;34.77;27.37;;;9.60;99.90;;;;;;5012724;28;20207;-79
2023/03/18 05:14:28;;;;;;;37.30;28.27;;;9.60;99.90;;;;;;5012918;28;20270;-80
2023/03/18 05:16:55;;;;;;;34.23;28.13;;;9.60;99.90;;;;;;5012716;28;20199;-79
2023/03/18 05:19:22;;;;;;;38.30;27.40;;;9.70;99.90;;;;;;5012340;28;20226;-79
2023/03/18 05:21:51;;;;;;;30.93;25.87;;;9.70;99.90;;;;;;5013040;28;20196;-79
2023/03/18 05:24:17;;;;;;;33.00;26.90;;;9.70;99.90;;;;;;5011555;28;20223;-79
2023/03/18 05:26:44;;;;;;;32.97;27.00;;;9.70;99.90;;;;;;5012535;28;20242;-80
2023/03/18 05:29:11;;;;;;;31.63;25.67;;;9.70;99.90;;;;;;5012625;28;20302;-79
2023/03/18 05:31:38;;;;;;;31.63;25.63;;;9.70;99.90;;;;;;5012530;28;20205;-78
2023/03/18 05:34:06;;;;;;;31.60;26.83;;;9.70;99.90;;;;;;5012525;28;20226;-79
2023/03/18 05:36:35;;;;;;;33.27;27.87;;;9.70;99.90;;;;;;5012830;28;20483;-79
2023/03/18 05:39:04;;;;;;;30.93;25.57;;;9.70;99.90;;;;;;5011881;28;20213;-79
2023/03/18 05:41:31;;;;;;;33.70;25.80;;;9.70;99.90;;;;;;5012572;28;20188;-79
2023/03/18 05:43:57;;;;;;;36.57;28.27;;;9.70;99.90;;;;;;5012689;28;20230;-78
2023/03/18 05:46:25;;;;;;;34.87;28.50;;;9.70;99.90;;;;;;5012045;28;20222;-79
2023/03/18 05:48:52;;;;;;;32.83;27.17;;;9.60;99.90;;;;;;5012608;28;20582;-80
2023/03/18 05:51:19;;;;;;;34.27;28.03;;;9.60;99.90;;;;;;5012187;28;20205;-79
2023/03/18 05:53:46;;;;;;;37.33;28.87;;;9.60;99.90;;;;;;5011519;28;20214;-79
2023/03/18 05:56:15;;;;;;;33.07;26.30;;;9.70;99.90;;;;;;5011965;28;20195;-79
2023/03/18 05:58:42;;;;;;;34.53;27.33;;;9.60;99.90;;;;;;5012358;28;20207;-79
2023/03/18 06:01:10;;;;;;;30.07;24.90;;;9.60;99.90;;;;;;5011729;28;20622;-78
2023/03/18 06:03:37;;;;;;;32.70;26.33;;;9.60;99.90;;;;;;5012271;28;20214;-80
2023/03/18 06:06:05;;;;;;;31.73;25.67;;;9.60;99.90;;;;;;5011791;28;20215;-79
2023/03/18 06:08:32;;;;;;;31.27;24.80;;;9.60;99.90;;;;;;5011643;28;20330;-79
2023/03/18 06:10:59;;;;;;;35.77;26.47;;;9.60;99.90;;;;;;5014655;28;20290;-79
2023/03/18 06:13:28;;;;;;;32.83;24.73;;;9.60;99.90;;;;;;5032225;28;20268;-79
2023/03/18 06:15:59;;;;;;;29.80;24.73;;;9.70;99.90;;;;;;5031565;28;20333;-79
2023/03/18 06:18:26;;;;;;;29.43;22.17;;;9.60;99.90;;;;;;5020487;28;20203;-78
2023/03/18 06:20:53;;;;;;;30.43;24.57;;;9.60;99.90;;;;;;5010724;28;20199;-76
2023/03/18 06:23:21;;;;;;;27.10;23.63;;;9.70;99.90;;;;;;5011689;28;20203;-77
2023/03/18 06:25:48;;;;;;;32.33;24.00;;;9.70;99.90;;;;;;5012169;28;20199;-79
2023/03/18 06:28:15;;;;;;;30.30;24.53;;;9.70;99.90;;;;;;5012056;28;20225;-80
2023/03/18 06:30:43;;;;;;;27.70;22.37;;;9.70;99.90;;;;;;5012101;28;20218;-78
2023/03/18 06:33:10;;;;;;;29.57;24.13;;;9.80;99.90;;;;;;5011602;28;20199;-78
2023/03/18 06:35:38;;;;;;;29.33;23.00;;;9.80;99.90;;;;;;5011486;28;20199;-77
2023/03/18 06:38:05;;;;;;;28.40;25.13;;;9.80;99.90;;;;;;5015689;28;20207;-76
2023/03/18 06:40:32;;;;;;;28.17;23.67;;;9.80;99.90;;;;;;5015804;28;20281;-76
2023/03/18 06:42:59;;;;;;;30.27;24.53;;;9.90;99.90;;;;;;5015023;28;20206;-78
2023/03/18 06:45:26;;;;;;;29.17;24.00;;;9.90;99.90;;;;;;5016179;28;20233;-76
2023/03/18 06:47:55;;;;;;;27.90;23.80;;;9.90;99.90;;;;;;5015399;28;20835;-77
2023/03/18 06:50:23;;;;;;;32.00;24.30;;;10.00;99.90;;;;;;5015578;28;20203;-79
2023/03/18 06:52:50;;;;;;;31.00;25.60;;;10.00;99.90;;;;;;5015874;28;20199;-76
2023/03/18 06:55:17;;;;;;;31.17;23.23;;;10.00;99.90;;;;;;5015086;28;20297;-77
2023/03/18 06:57:44;;;;;;;27.73;23.33;;;10.00;99.90;;;;;;5014781;28;20200;-78
2023/03/18 07:00:12;;;;;;;27.10;23.80;;;10.00;99.90;;;;;;5015588;28;20206;-76
2023/03/18 07:02:39;;;;;;;27.90;23.17;;;10.10;99.90;;;;;;5015661;28;20205;-76
2023/03/18 07:05:08;;;;;;;32.20;25.80;;;10.10;99.90;;;;;;5014538;28;20210;-76
2023/03/18 07:07:36;;;;;;;33.53;25.70;;;10.10;99.90;;;;;;5015139;28;20318;-79
2023/03/18 07:10:04;;;;;;;40.40;27.37;;;10.10;99.90;;;;;;5014571;28;20215;-77
2023/03/18 07:12:31;;;;;;;33.47;26.63;;;10.20;99.90;;;;;;5015503;28;20199;-76
2023/03/18 07:14:58;;;;;;;31.63;27.50;;;10.20;99.90;;;;;;5015202;28;20571;-78
2023/03/18 07:17:25;;;;;;;34.20;26.70;;;10.20;99.90;;;;;;5014530;28;20297;-76
2023/03/18 07:19:51;;;;;;;37.20;27.50;;;10.30;99.90;;;;;;5014947;28;20202;-75
2023/03/18 07:22:20;;;;;;;34.40;26.73;;;10.40;99.90;;;;;;5019379;28;20293;-77
2023/03/18 07:24:47;;;;;;;35.57;27.37;;;10.50;99.90;;;;;;5025102;28;20211;-76
2023/03/18 07:27:14;;;;;;;32.43;27.40;;;10.60;99.90;;;;;;5014420;28;20665;-78
2023/03/18 07:29:41;;;;;;;35.73;28.23;;;10.60;99.90;;;;;;5014776;28;20286;-77
2023/03/18 07:32:08;;;;;;;32.27;27.17;;;10.70;99.90;;;;;;5014283;28;20282;-76
2023/03/18 07:34:35;;;;;;;33.03;27.03;;;10.80;99.90;;;;;;5014892;28;20495;-80
2023/03/18 07:37:02;;;;;;;31.30;26.10;;;10.80;99.90;;;;;;5014190;28;20207;-76
2023/03/18 07:39:31;;;;;;;28.50;25.23;;;10.80;99.90;;;;;;5014147;28;20682;-77
2023/03/18 07:41:58;;;;;;;30.00;25.27;;;10.80;99.90;;;;;;5014803;28;20199;-76
2023/03/18 07:44:25;;;;;;;35.70;26.47;;;10.90;99.90;;;;;;5014513;28;20207;-77
2023/03/18 07:46:51;;;;;;;31.47;25.03;;;11.00;99.90;;;;;;5013799;28;20204;-76
2023/03/18 07:49:19;;;;;;;29.60;24.87;;;11.00;99.90;;;;;;5014803;28;20550;-77
2023/03/18 07:51:46;;;;;;;28.70;25.13;;;11.00;99.90;;;;;;5014417;28;20585;-78
2023/03/18 07:54:13;;;;;;;29.40;25.90;;;11.10;99.90;;;;;;5013382;28;20290;-78
2023/03/18 07:56:41;;;;;;;28.13;24.33;;;11.10;99.90;;;;;;5014047;28;20198;-78
2023/03/18 07:59:09;;;;;;;31.17;25.17;;;11.10;99.90;;;;;;5014117;28;20621;-77
2023/03/18 08:01:36;;;;;;;29.67;25.37;;;11.10;99.90;;;;;;5013987;28;20261;-77
2023/03/18 08:04:03;;;;;;;29.93;25.60;;;11.20;99.90;;;;;;5013858;28;20211;-78
2023/03/18 08:06:30;;;;;;;28.77;24.90;;;11.20;99.90;;;;;;5013273;28;20200;-77
2023/03/18 08:08:57;;;;;;;25.67;22.60;;;11.10;99.90;;;;;;5014144;28;20219;-78
2023/03/18 08:11:24;;;;;;;26.40;22.47;;;11.20;99.90;;;;;;5014075;28;20235;-77
2023/03/18 08:13:53;;;;;;;25.20;21.73;;;11.20;99.90;;;;;;5013537;28;20214;-76
2023/03/18 08:16:20;;;;;;;24.90;21.50;;;11.20;99.90;;;;;;5014296;28;20183;-78
2023/03/18 08:18:46;;;;;;;28.50;21.63;;;11.30;99.90;;;;;;5015705;28;20205;-78
2023/03/18 08:21:14;;;;;;;23.77;21.17;;;11.30;99.90;;;;;;5013678;28;20291;-79
2023/03/18 08:23:41;;;;;;;25.40;21.20;;;11.30;99.90;;;;;;5014182;28;20211;-78
2023/03/18 08:26:08;;;;;;;24.20;21.63;;;11.40;99.90;;;;;;5013694;28;20219;-78
2023/03/18 08:28:35;;;;;;;26.23;21.13;;;11.50;99.90;;;;;;5012831;28;20901;-78
2023/03/18 08:31:03;;;;;;;24.27;21.17;;;11.50;99.90;;;;;;5013844;28;20242;-78
2023/03/18 08:33:31;;;;;;;27.27;21.17;;;11.50;99.90;;;;;;5014092;28;20203;-75
2023/03/18 08:35:58;;;;;;;23.57;20.20;;;11.60;99.90;;;;;;5012658;28;20622;-75
2023/03/18 08:38:25;;;;;;;26.97;21.83;;;11.60;99.90;;;;;;5013416;28;20238;-75
2023/03/18 08:40:52;;;;;;;24.40;20.00;;;11.70;99.90;;;;;;5013517;28;20207;-75
2023/03/18 08:43:20;;;;;;;23.70;20.50;;;11.80;99.90;;;;;;5012795;28;20203;-75
2023/03/18 08:45:52;;;;;;;24.47;18.90;;;11.80;99.90;;;;;;5013288;28;20217;-76
2023/03/18 08:48:20;;;;;;;20.57;18.00;;;11.80;99.90;;;;;;5013286;28;20305;-76
2023/03/18 08:50:48;;;;;;;24.60;19.93;;;11.90;99.90;;;;;;5013064;28;20279;-76
2023/03/18 08:53:15;;;;;;;21.50;19.17;;;12.00;99.90;;;;;;5012805;28;20219;-77
2023/03/18 08:55:42;;;;;;;19.30;17.23;;;12.10;99.90;;;;;;5012720;28;20603;-78
2023/03/18 08:58:09;;;;;;;21.03;18.50;;;12.30;99.90;;;;;;5013318;28;20207;-77
2023/03/18 09:00:38;;;;;;;21.00;18.33;;;12.40;99.90;;;;;;5012671;28;20205;-77
2023/03/18 09:03:05;;;;;;;19.80;16.37;;;12.50;99.90;;;;;;5012868;28;20302;-77
2023/03/18 09:05:33;;;;;;;22.13;17.10;;;12.60;99.90;;;;;;5012918;28;20500;-77
2023/03/18 09:08:00;;;;;;;20.63;15.17;;;12.80;99.90;;;;;;5012869;28;20239;-78
2023/03/18 09:10:29;;;;;;;17.70;14.87;;;12.90;99.90;;;;;;5012315;28;20228;-77
2023/03/18 09:12:56;;;;;;;20.90;15.37;;;13.00;99.90;;;;;;5012580;28;20204;-78
2023/03/18 09:15:23;;;;;;;16.20;14.50;;;13.10;99.90;;;;;;5012591;28;20575;-78
2023/03/18 09:17:50;;;;;;;16.93;15.00;;;13.30;99.90;;;;;;5012042;28;20300;-77
2023/03/18 09:20:17;;;;;;;16.13;12.63;;;13.40;99.90;;;;;;5012803;28;20209;-78
2023/03/18 09:22:46;;;;;;;15.17;12.83;;;13.50;99.90;;;;;;5018147;28;20219;-78
2023/03/18 09:25:13;;;;;;;14.33;11.70;;;13.70;99.90;;;;;;5029228;28;20203;-78
2023/03/18 09:27:41;;;;;;;13.97;11.30;;;13.70;99.90;;;;;;5032371;28;20385;-78
2023/03/18 09:30:09;;;;;;;14.73;11.80;;;13.80;99.90;;;;;;5013117;28;20226;-78
2023/03/18 09:32:36;;;;;;;14.17;10.40;;;13.90;99.90;;;;;;5018217;28;20653;-78
2023/03/18 09:35:04;;;;;;;12.83;10.30;;;14.10;99.90;;;;;;5031511;28;20200;-77
2023/03/18 09:37:30;;;;;;;11.03;9.73;;;14.30;99.90;;;;;;5021085;28;20307;-78
2023/03/18 09:39:59;;;;;;;13.07;8.70;;;14.40;99.90;;;;;;5022946;28;20314;-77
2023/03/18 09:42:49;;;;;;;9.57;7.77;;;14.60;99.90;;;;;;5019292;28;20270;-78
2023/03/18 09:45:23;;;;;;;9.80;7.50;;;14.70;99.90;;;;;;5024071;28;20269;-78
2023/03/18 09:48:27;;;;;;;8.50;7.70;;;14.80;99.90;;;;;;5022361;28;20233;-78
2023/03/18 09:51:01;;;;;;;11.07;9.43;;;14.80;99.90;;;;;;5020557;28;20614;-78
2023/03/18 09:53:40;;;;;;;14.93;11.80;;;14.70;99.90;;;;;;5031193;28;20189;-77
2023/03/18 09:56:16;;;;;;;20.03;12.57;;;14.60;99.90;;;;;;5029552;28;20202;-77
2023/03/18 09:58:52;;;;;;;12.93;10.77;;;14.60;99.90;;;;;;5011522;28;20572;-77
2023/03/18 10:01:22;;;;;;;13.45;10.75;;;14.50;99.90;;;;;;5024682;28;20217;-77
2023/03/18 10:03:55;;;;;;;11.60;10.40;;;14.40;99.90;;;;;;5031426;28;20278;-76
2023/03/18 10:06:23;;;;;;;12.43;9.50;;;14.40;99.90;;;;;;5026410;28;20199;-75
2023/03/18 10:08:58;;;;;;;11.13;9.63;;;14.40;99.90;;;;;;5031555;28;20218;-76
2023/03/18 10:11:32;;;;;;;13.53;10.70;;;14.40;99.90;;;;;;5021637;28;20202;-75
2023/03/18 10:14:23;;;;;;;11.07;9.87;;;14.50;99.90;;;;;;5011451;28;20202;-79
2023/03/18 10:17:01;;;;;;;13.65;10.48;;;14.80;99.90;;;;;;5012224;28;20291;-76
2023/03/18 10:19:28;;;;;;;12.50;11.23;;;15.10;99.90;;;;;;5026901;28;20197;-77
2023/03/18 10:22:07;;;;;;;13.27;11.98;;;15.40;99.90;;;;;;5030097;28;20329;-77
2023/03/18 10:24:39;;;;;;;13.07;11.48;;;15.70;99.90;;;;;;5031433;28;20216;-77
2023/03/18 10:27:16;;;;;;;15.95;12.38;;;15.90;99.90;;;;;;5031258;28;20223;-78
2023/03/18 10:29:49;;;;;;;13.65;12.25;;;16.10;99.90;;;;;;5015189;28;20217;-79
2023/03/18 10:32:27;;;;;;;13.18;11.82;;;16.30;99.90;;;;;;5011813;28;20614;-76
2023/03/18 10:35:04;;;;;;;12.65;11.02;;;16.20;99.90;;;;;;5030139;28;20198;-78
2023/03/18 10:37:42;;;;;;;11.07;9.95;;;16.10;99.90;;;;;;5015062;28;20203;-78
2023/03/18 10:40:15;;;;;;;11.60;10.55;;;16.00;99.90;;;;;;5011919;28;20282;-78
2023/03/18 10:42:45;;;;;;;13.30;11.93;;;16.00;99.90;;;;;;5011290;28;20195;-78
2023/03/18 10:45:21;;;;;;;12.98;11.60;;;16.00;99.90;;;;;;5011657;28;20210;-77
2023/03/18 10:47:58;;;;;;;14.48;12.13;;;15.90;99.90;;;;;;5017147;28;20499;-77
2023/03/18 10:50:32;;;;;;;14.80;12.93;;;15.70;99.90;;;;;;5031580;28;20194;-78
2023/03/18 10:53:04;;;;;;;13.93;12.43;;;15.60;99.90;;;;;;5031001;28;20217;-78
2023/03/18 10:55:36;;;;;;;13.18;11.98;;;15.60;99.90;;;;;;5030825;28;20260;-76
2023/03/18 10:58:14;;;;;;;12.45;11.25;;;15.70;99.90;;;;;;5031505;28;20190;-77
2023/03/18 11:00:43;;;;;;;14.98;12.38;;;15.80;99.90;;;;;;5029487;28;20187;-77
2023/03/18 11:03:20;;;;;;;14.63;12.93;;;16.00;99.90;;;;;;5016786;28;20253;-77
2023/03/18 11:05:49;;;;;;;14.75;13.35;;;16.00;99.90;;;;;;5024254;28;20199;-77
2023/03/18 11:08:33;;;;;;;14.05;12.73;;;16.10;99.90;;;;;;5011247;28;20654;-77
2023/03/18 11:11:16;;;;;;;13.45;12.15;;;16.20;99.90;;;;;;5022727;28;20228;-78
2023/03/18 11:13:47;;;;;;;14.77;13.20;;;16.30;99.90;;;;;;5030857;28;20551;-78
2023/03/18 11:16:29;;;;;;;14.93;13.30;;;16.40;99.90;;;;;;5015216;28;20265;-77
2023/03/18 11:18:57;;;;;;;13.32;12.02;;;16.40;99.90;;;;;;5030206;28;20530;-77
2023/03/18 11:21:25;;;;;;;17.65;13.00;;;16.40;99.90;;;;;;5030336;28;20671;-77
2023/03/18 11:24:19;;;;;;;13.77;12.18;;;16.40;99.90;;;;;;5032894;28;20210;-77
2023/03/18 11:26:53;;;;;;;14.20;11.48;;;16.50;99.90;;;;;;5014769;28;20247;-78
2023/03/18 11:29:24;;;;;;;12.73;11.63;;;16.40;99.90;;;;;;5014628;28;20323;-78
2023/03/18 11:31:56;;;;;;;15.27;11.80;;;16.40;99.90;;;;;;5018538;28;20580;-78
2023/03/18 11:34:25;;;;;;;12.95;11.35;;;16.40;99.90;;;;;;5014995;28;20195;-78
2023/03/18 11:36:59;;;;;;;12.27;11.13;;;16.40;99.90;;;;;;5015261;28;20211;-74
2023/03/18 11:39:29;;;;;;;15.27;12.68;;;16.50;99.90;;;;;;5014559;28;20219;-78
2023/03/18 11:41:58;;;;;;;16.10;11.68;;;16.60;99.90;;;;;;5014226;28;20265;-78
2023/03/18 11:44:29;;;;;;;12.25;10.98;;;16.80;99.90;;;;;;5014352;28;20207;-76
2023/03/18 11:47:07;;;;;;;13.10;10.45;;;16.90;99.90;;;;;;5030532;28;20195;-77
2023/03/18 11:49:34;;;;;;;12.65;10.23;;;17.10;99.90;;;;;;5015654;28;20847;-77
2023/03/18 11:52:26;;;;;;;12.43;11.18;;;17.20;99.90;;;;;;5030462;28;20198;-77
2023/03/18 11:55:17;;;;;;;11.98;10.57;;;17.10;99.90;;;;;;5016375;28;20299;-76
2023/03/18 11:58:07;;;;;;;17.05;12.15;;;17.20;99.90;;;;;;5034282;28;20202;-77
2023/03/18 12:00:44;;;;;;;13.25;11.95;;;17.10;99.90;;;;;;5004221;28;20302;-77
2023/03/18 12:03:53;;;;;;;12.73;11.43;;;17.00;99.90;;;;;;5016769;28;20290;-77
2023/03/18 12:06:22;;;;;;;14.43;12.00;;;16.80;99.90;;;;;;5013264;28;20846;-77
2023/03/18 12:09:02;;;;;;;12.05;10.85;;;16.70;99.90;;;;;;5015339;28;20245;-75
2023/03/18 12:11:47;;;;;;;12.40;10.85;;;16.80;99.90;;;;;;5014384;28;20219;-77
2023/03/18 12:14:20;;;;;;;14.50;10.13;;;16.80;99.90;;;;;;5012775;28;20333;-75
2023/03/18 12:16:58;;;;;;;10.73;8.68;;;16.80;99.90;;;;;;5030633;28;20813;-77
2023/03/18 12:19:50;;;;;;;11.35;9.25;;;16.70;99.90;;;;;;5032918;28;20198;-77
2023/03/18 12:22:43;;;;;;;11.18;9.52;;;16.70;99.90;;;;;;5023601;28;20207;-77
2023/03/18 12:25:34;;;;;;;13.90;10.82;;;16.70;99.90;;;;;;5014022;28;20564;-75
2023/03/18 12:28:07;;;;;;;12.10;9.18;;;16.60;99.90;;;;;;5012183;28;20639;-75
2023/03/18 12:30:56;;;;;;;10.55;9.45;;;16.60;99.90;;;;;;5014159;28;20187;-77
2023/03/18 12:33:39;;;;;;;10.30;9.18;;;16.60;99.90;;;;;;5012347;28;20195;-77
2023/03/18 12:36:17;;;;;;;11.23;9.05;;;16.50;99.90;;;;;;5027017;28;20763;-76
2023/03/18 12:39:13;;;;;;;12.38;10.13;;;16.30;99.90;;;;;;5016567;28;20261;-77
2023/03/18 12:41:50;;;;;;;12.73;10.40;;;16.20;99.90;;;;;;5013433;28;20502;-77
2023/03/18 12:44:32;;;;;;;13.40;11.15;;;16.00;99.90;;;;;;5013653;28;20195;-78
2023/03/18 12:47:06;;;;;;;11.05;9.95;;;15.90;99.90;;;;;;5013933;28;20191;-79